ePrivacy and GPDR Cookie Consent by Cookie Consent
EmailTwitter


Observations de surface / Québec / CYQB (71714)

Régions: Québec | Canada | États-Unis | Europe | France | UK | Ailleurs
Station
Affichage
Infos & localisation pour CYQB (71714) | Aide pour décoder les METARs

Observations prises le 2022-12-03 à 19H20 UTC à QUEBEC A, QB (CYQB)

Etat du ciel: couvert.

Obstacle(s) à la visibilité: faible pluie et brume.

Température: 1.0 Celsius

Point de rosée: 1.0 Celsius

Humidité relative: 100%

Facteur vent -2.

Vents: Nord-est à 11 km/h ou 6 noeuds.

Pression au niveau moyen de la mer: 100.47 kilopascals.

Calage altimétrique: 100.41 kilopascals ou 29.65 pouces de mercure.

Visibilité horizontale: 1.50 milles terrestres ou 2.40 kilomètres.

Hauteur du plafond: 244 mètres ( 800 pieds ).

Observation METAR:

CYQB 031920Z 03006KT 1 1/2SM -RA BR SCT002 OVC008 01/01 A2965 RMK SF4SF4 SLP047=